Time;durP1;ratioP1;P1;durP2;ratioP2;P2;SDS_P1;SDS_P2;PMS_P1;PMS_P2;Temp;Humidity;BMP_temperature;BMP_pressure;BME280_temperature;BME280_humidity;BME280_pressure;Samples;Min_cycle;Max_cycle;Signal;HPM_P1;HPM_P2
2023/06/09 00:01:25;;;;;;;;;;;19.80;67.80;;;;;;5031499;28;19957;-85
2023/06/09 00:03:52;;;;;;;;;;;19.70;68.50;;;;;;5023631;28;19909;-85
2023/06/09 00:06:22;;;;;;;;;;;19.60;69.00;;;;;;5010186;28;19914;-85
2023/06/09 00:08:51;;;;;;;;;;;19.50;68.80;;;;;;5010110;28;20230;-85
2023/06/09 00:11:16;;;;;;;;;;;19.50;69.50;;;;;;5053757;28;19932;-85
2023/06/09 00:13:42;;;;;;;;;;;19.40;69.80;;;;;;5010747;28;20387;-84
2023/06/09 00:16:07;;;;;;;;;;;19.40;69.70;;;;;;5008526;28;20239;-84
2023/06/09 00:18:34;;;;;;;;;;;19.30;69.90;;;;;;5010904;28;19909;-85
2023/06/09 00:21:00;;;;;;;;;;;19.30;69.90;;;;;;5016359;28;20059;-85
2023/06/09 00:23:28;;;;;;;;;;;19.20;70.00;;;;;;5023229;28;19913;-85
2023/06/09 00:25:54;;;;;;;;;;;19.20;70.20;;;;;;5028952;28;19909;-85
2023/06/09 00:28:19;;;;;;;;;;;19.20;70.70;;;;;;5017117;28;19917;-85
2023/06/09 00:30:44;;;;;;;;;;;19.20;70.60;;;;;;5009641;28;20458;-85
2023/06/09 00:33:10;;;;;;;;;;;19.10;70.50;;;;;;5025628;28;19910;-85
2023/06/09 00:35:36;;;;;;;;;;;19.10;70.60;;;;;;5013536;28;19915;-85
2023/06/09 00:38:01;;;;;;;;;;;19.10;70.50;;;;;;5009998;28;19917;-84
2023/06/09 00:40:27;;;;;;;;;;;19.20;70.60;;;;;;5029210;28;19909;-85
2023/06/09 00:42:52;;;;;;;;;;;19.10;70.90;;;;;;5030270;28;19921;-85
2023/06/09 00:45:18;;;;;;;;;;;19.20;70.30;;;;;;5029497;28;20415;-85
2023/06/09 00:47:44;;;;;;;;;;;19.20;70.30;;;;;;5014678;28;20349;-85
2023/06/09 00:50:11;;;;;;;;;;;19.10;70.60;;;;;;5002059;28;19914;-84
2023/06/09 00:52:37;;;;;;;;;;;19.10;70.30;;;;;;5020697;28;19992;-84
2023/06/09 00:55:03;;;;;;;;;;;19.00;70.40;;;;;;5030390;28;19981;-85
2023/06/09 00:57:29;;;;;;;;;;;19.00;70.70;;;;;;5030426;28;19909;-85
2023/06/09 00:59:56;;;;;;;;;;;19.00;70.50;;;;;;5029005;28;19927;-85
2023/06/09 01:02:23;;;;;;;;;;;19.00;70.80;;;;;;5028564;28;19916;-85
2023/06/09 01:04:54;;;;;;;;;;;18.90;71.40;;;;;;5021956;28;20454;-85
2023/06/09 01:07:38;;;;;;;;;;;18.80;71.40;;;;;;5020090;28;19996;-84
2023/06/09 01:10:06;;;;;;;;;;;18.80;71.50;;;;;;5029311;28;19913;-85
2023/06/09 01:12:44;;;;;;;;;;;18.70;72.00;;;;;;5029727;28;20051;-85
2023/06/09 01:15:18;;;;;;;;;;;18.70;72.10;;;;;;5029842;28;20275;-85
2023/06/09 01:17:48;;;;;;;;;;;18.60;72.10;;;;;;5015164;28;19920;-85
2023/06/09 01:20:17;;;;;;;;;;;18.50;72.10;;;;;;5017921;28;19944;-84
2023/06/09 01:22:57;;;;;;;;;;;18.50;72.40;;;;;;5030633;28;19918;-85
2023/06/09 01:25:37;;;;;;;;;;;18.50;72.50;;;;;;5030359;28;19919;-85
2023/06/09 01:28:05;;;;;;;;;;;18.40;72.80;;;;;;5031039;28;19921;-85
2023/06/09 01:30:32;;;;;;;;;;;18.30;73.20;;;;;;5031550;28;19909;-85
2023/06/09 01:32:58;;;;;;;;;;;18.30;73.60;;;;;;5030891;28;19948;-84
2023/06/09 01:35:24;;;;;;;;;;;18.30;74.00;;;;;;5013657;28;19914;-85
2023/06/09 01:37:50;;;;;;;;;;;18.30;73.80;;;;;;5016766;28;19919;-85
2023/06/09 01:40:15;;;;;;;;;;;18.20;73.90;;;;;;5030367;28;19920;-84
2023/06/09 01:42:41;;;;;;;;;;;18.30;73.70;;;;;;5030324;28;20271;-85
2023/06/09 01:45:06;;;;;;;;;;;18.30;73.40;;;;;;5045170;28;19913;-85
2023/06/09 01:47:32;;;;;;;;;;;18.30;73.20;;;;;;5038116;28;20013;-84
2023/06/09 01:50:01;;;;;;;;;;;18.30;73.30;;;;;;5041071;28;19925;-85
2023/06/09 01:52:33;;;;;;;;;;;18.30;73.40;;;;;;5025441;28;19948;-84
2023/06/09 01:55:09;;;;;;;;;;;18.30;73.40;;;;;;5042845;28;19913;-85
2023/06/09 01:57:55;;;;;;;;;;;18.30;73.30;;;;;;5028089;28;20003;-85
2023/06/09 02:00:23;;;;;;;;;;;18.20;73.60;;;;;;5028030;28;19909;-84
2023/06/09 02:02:51;;;;;;;;;;;18.10;74.00;;;;;;5017803;28;20000;-85
2023/06/09 02:05:17;;;;;;;;;;;18.10;73.90;;;;;;5010053;28;19921;-85
2023/06/09 02:07:44;;;;;;;;;;;18.10;74.10;;;;;;5019316;28;19916;-84
2023/06/09 02:10:10;;;;;;;;;;;18.10;74.00;;;;;;5028659;28;19913;-84
2023/06/09 02:12:36;;;;;;;;;;;18.10;74.30;;;;;;5027736;28;19971;-85
2023/06/09 02:15:02;;;;;;;;;;;17.90;74.50;;;;;;5027094;28;19913;-85
2023/06/09 02:17:28;;;;;;;;;;;17.90;74.90;;;;;;5008086;28;19917;-85
2023/06/09 02:19:53;;;;;;;;;;;18.00;75.00;;;;;;5015913;28;19914;-85
2023/06/09 02:22:19;;;;;;;;;;;17.90;74.80;;;;;;5020753;28;19923;-84
2023/06/09 02:24:44;;;;;;;;;;;17.70;75.20;;;;;;5027444;28;20321;-84
2023/06/09 02:27:10;;;;;;;;;;;17.60;75.90;;;;;;5016493;28;19914;-84
2023/06/09 02:29:35;;;;;;;;;;;17.60;75.80;;;;;;5027699;28;19917;-85
2023/06/09 02:32:01;;;;;;;;;;;17.60;76.10;;;;;;5028204;28;20411;-85
2023/06/09 02:34:29;;;;;;;;;;;17.70;76.00;;;;;;5009238;28;20287;-84
2023/06/09 02:36:57;;;;;;;;;;;17.70;76.00;;;;;;5008113;28;19914;-85
2023/06/09 02:39:23;;;;;;;;;;;17.70;76.10;;;;;;5007001;28;20012;-84
2023/06/09 02:41:48;;;;;;;;;;;17.60;76.10;;;;;;5014746;28;20012;-85
2023/06/09 02:44:14;;;;;;;;;;;17.60;76.20;;;;;;5015273;28;19910;-84
2023/06/09 02:46:40;;;;;;;;;;;17.60;76.30;;;;;;5006732;28;19941;-84
2023/06/09 02:49:09;;;;;;;;;;;17.60;76.50;;;;;;5007354;28;19918;-85
2023/06/09 02:51:34;;;;;;;;;;;17.60;76.70;;;;;;5011844;28;20313;-85
2023/06/09 02:54:00;;;;;;;;;;;17.50;76.90;;;;;;5019002;28;19924;-84
2023/06/09 02:56:26;;;;;;;;;;;17.50;76.40;;;;;;5006581;28;20012;-84
2023/06/09 02:58:51;;;;;;;;;;;17.50;76.70;;;;;;5014726;28;19917;-85
2023/06/09 03:01:17;;;;;;;;;;;17.50;77.10;;;;;;5026888;28;19956;-85
2023/06/09 03:03:43;;;;;;;;;;;17.50;76.90;;;;;;5027015;28;19909;-85
2023/06/09 03:06:09;;;;;;;;;;;17.50;77.00;;;;;;5019206;28;20004;-85
2023/06/09 03:08:34;;;;;;;;;;;17.40;76.80;;;;;;5018051;28;19988;-85
2023/06/09 03:11:00;;;;;;;;;;;17.40;77.20;;;;;;5027194;28;20318;-85
2023/06/09 03:13:25;;;;;;;;;;;17.40;77.20;;;;;;5010060;28;19948;-85
2023/06/09 03:15:51;;;;;;;;;;;17.40;77.60;;;;;;5014628;28;19956;-84
2023/06/09 03:18:16;;;;;;;;;;;17.30;77.50;;;;;;5027556;28;19913;-85
2023/06/09 03:20:42;;;;;;;;;;;17.30;77.50;;;;;;5027302;28;20019;-85
2023/06/09 03:23:08;;;;;;;;;;;17.30;77.60;;;;;;5020095;28;19917;-85
2023/06/09 03:25:34;;;;;;;;;;;17.20;77.60;;;;;;5020763;28;19909;-85
2023/06/09 03:28:00;;;;;;;;;;;17.20;77.60;;;;;;5009739;28;20441;-85
2023/06/09 03:30:26;;;;;;;;;;;17.20;77.90;;;;;;5013474;28;19966;-85
2023/06/09 03:32:51;;;;;;;;;;;17.10;77.80;;;;;;5022770;28;20004;-85
2023/06/09 03:35:16;;;;;;;;;;;17.10;78.10;;;;;;5018885;28;20033;-85
2023/06/09 03:37:42;;;;;;;;;;;17.10;77.80;;;;;;5007564;28;19913;-85
2023/06/09 03:40:08;;;;;;;;;;;17.10;77.90;;;;;;5027694;28;19909;-85
2023/06/09 03:42:33;;;;;;;;;;;17.20;77.60;;;;;;5028455;28;20306;-85
2023/06/09 03:44:59;;;;;;;;;;;17.20;77.60;;;;;;5029449;28;19909;-85
2023/06/09 03:47:27;;;;;;;;;;;17.20;77.60;;;;;;5017459;28;19918;-85
2023/06/09 03:49:53;;;;;;;;;;;17.30;77.40;;;;;;5025546;28;19917;-85
2023/06/09 03:52:21;;;;;;;;;;;17.40;77.10;;;;;;5019558;28;19928;-85
2023/06/09 03:54:47;;;;;;;;;;;17.20;77.70;;;;;;5019425;28;20313;-85
2023/06/09 03:57:12;;;;;;;;;;;17.30;77.60;;;;;;5009865;28;19909;-85
2023/06/09 03:59:38;;;;;;;;;;;17.40;76.90;;;;;;5006397;28;20306;-84
2023/06/09 04:02:03;;;;;;;;;;;17.30;77.60;;;;;;5007950;28;19909;-84
2023/06/09 04:04:28;;;;;;;;;;;17.20;78.00;;;;;;5014792;28;19910;-84
2023/06/09 04:06:56;;;;;;;;;;;17.20;77.80;;;;;;5017922;28;19917;-85
2023/06/09 04:09:21;;;;;;;;;;;17.20;77.70;;;;;;5018850;28;19952;-85
2023/06/09 04:11:47;;;;;;;;;;;17.10;77.80;;;;;;5026131;28;20429;-84
2023/06/09 04:14:12;;;;;;;;;;;17.10;77.70;;;;;;5025316;28;19909;-84
2023/06/09 04:16:38;;;;;;;;;;;17.10;78.00;;;;;;5025312;28;20369;-84
2023/06/09 04:19:03;;;;;;;;;;;17.10;78.30;;;;;;5018278;28;19914;-84
2023/06/09 04:21:29;;;;;;;;;;;17.00;78.60;;;;;;5018396;28;19910;-84
2023/06/09 04:23:55;;;;;;;;;;;17.00;79.10;;;;;;5014709;28;19942;-84
2023/06/09 04:26:21;;;;;;;;;;;17.10;79.10;;;;;;5026425;28;19917;-85
2023/06/09 04:28:47;;;;;;;;;;;17.10;78.80;;;;;;5017603;28;19917;-85
2023/06/09 04:31:12;;;;;;;;;;;17.20;79.00;;;;;;5028462;28;19909;-84
2023/06/09 04:33:39;;;;;;;;;;;17.20;79.00;;;;;;5029478;28;20545;-84
2023/06/09 04:36:05;;;;;;;;;;;17.20;79.00;;;;;;5020952;28;19920;-84
2023/06/09 04:38:33;;;;;;;;;;;17.30;78.60;;;;;;5008550;28;19914;-84
2023/06/09 04:41:02;;;;;;;;;;;17.30;78.80;;;;;;5018040;28;20016;-85
2023/06/09 04:43:28;;;;;;;;;;;17.30;79.10;;;;;;5011263;28;20382;-85
2023/06/09 04:45:55;;;;;;;;;;;17.40;78.90;;;;;;5008890;28;20001;-83
2023/06/09 04:48:21;;;;;;;;;;;17.50;78.90;;;;;;5009376;28;19967;-84
2023/06/09 04:50:47;;;;;;;;;;;17.60;78.70;;;;;;5011017;28;19917;-84
2023/06/09 04:53:15;;;;;;;;;;;17.60;78.40;;;;;;5016651;28;19913;-85
2023/06/09 04:55:40;;;;;;;;;;;17.70;77.90;;;;;;5024582;28;19909;-84
2023/06/09 04:58:06;;;;;;;;;;;17.80;77.80;;;;;;5030306;28;19910;-84
2023/06/09 05:00:32;;;;;;;;;;;17.80;78.10;;;;;;5011533;28;20347;-84
2023/06/09 05:02:57;;;;;;;;;;;17.80;78.30;;;;;;5010907;28;19939;-84
2023/06/09 05:05:23;;;;;;;;;;;17.80;78.20;;;;;;5008040;28;19913;-84
2023/06/09 05:07:49;;;;;;;;;;;18.10;77.20;;;;;;5017116;28;19910;-84
2023/06/09 05:10:15;;;;;;;;;;;18.00;77.40;;;;;;5010356;28;20519;-84
2023/06/09 05:12:40;;;;;;;;;;;18.10;77.50;;;;;;5009626;28;19948;-84
2023/06/09 05:15:06;;;;;;;;;;;18.10;77.60;;;;;;5025270;28;20382;-85
2023/06/09 05:17:41;;;;;;;;;;;18.20;77.10;;;;;;5009545;28;19920;-84
2023/06/09 05:20:07;;;;;;;;;;;18.20;77.00;;;;;;5017660;28;19920;-84
2023/06/09 05:22:33;;;;;;;;;;;18.40;77.10;;;;;;5020300;28;19917;-84
2023/06/09 05:24:59;;;;;;;;;;;18.50;76.80;;;;;;5027698;28;20239;-84
2023/06/09 05:27:24;;;;;;;;;;;18.50;76.40;;;;;;5030613;28;19935;-84
2023/06/09 05:29:50;;;;;;;;;;;18.60;76.20;;;;;;5017263;28;20387;-84
2023/06/09 05:32:15;;;;;;;;;;;18.60;76.30;;;;;;5008744;28;19913;-84
2023/06/09 05:34:41;;;;;;;;;;;18.70;76.00;;;;;;5007576;28;19990;-84
2023/06/09 05:37:06;;;;;;;;;;;18.70;76.10;;;;;;5027654;28;19909;-82
2023/06/09 05:39:32;;;;;;;;;;;18.80;75.60;;;;;;5052985;28;19928;-82
2023/06/09 05:41:57;;;;;;;;;;;18.80;75.70;;;;;;5054559;28;19953;-83
2023/06/09 05:44:23;;;;;;;;;;;18.90;75.70;;;;;;5031880;28;20005;-83
2023/06/09 05:49:16;;;;;;;;;;;19.30;74.80;;;;;;5050337;28;19925;-79
2023/06/09 05:51:42;;;;;;;;;;;19.50;74.60;;;;;;5054716;28;19913;-79
2023/06/09 05:54:07;;;;;;;;;;;19.60;74.00;;;;;;5059602;28;19909;-79
2023/06/09 05:56:32;;;;;;;;;;;20.00;71.90;;;;;;5059709;28;19913;-79
2023/06/09 05:59:03;;;;;;;;;;;19.60;72.90;;;;;;5058367;28;19917;-79
2023/06/09 06:01:32;;;;;;;;;;;19.60;74.00;;;;;;5059250;28;20348;-79
2023/06/09 06:03:58;;;;;;;;;;;19.50;74.50;;;;;;5057544;28;20015;-79
2023/06/09 06:06:23;;;;;;;;;;;19.60;74.30;;;;;;5056029;28;19909;-80
2023/06/09 06:08:49;;;;;;;;;;;19.60;74.20;;;;;;5039930;28;19984;-80
2023/06/09 06:11:14;;;;;;;;;;;19.60;73.10;;;;;;5023938;28;19909;-79
2023/06/09 06:13:40;;;;;;;;;;;19.60;73.50;;;;;;5053411;28;20032;-79
2023/06/09 06:16:05;;;;;;;;;;;19.60;73.20;;;;;;5053928;28;20372;-79
2023/06/09 06:18:31;;;;;;;;;;;19.70;72.80;;;;;;5041365;28;20000;-79
2023/06/09 06:20:56;;;;;;;;;;;19.80;72.40;;;;;;5057873;28;20000;-80
2023/06/09 06:23:22;;;;;;;;;;;19.80;72.70;;;;;;5057081;28;19913;-80
2023/06/09 06:25:47;;;;;;;;;;;19.90;72.00;;;;;;5048879;28;19920;-79
2023/06/09 06:28:13;;;;;;;;;;;20.00;71.80;;;;;;5058537;28;19967;-79
2023/06/09 06:30:38;;;;;;;;;;;20.00;72.40;;;;;;5061117;28;19951;-80
2023/06/09 06:33:04;;;;;;;;;;;20.10;71.30;;;;;;5060691;28;20435;-80
2023/06/09 06:35:30;;;;;;;;;;;20.10;71.00;;;;;;5027038;28;20287;-79
2023/06/09 06:37:56;;;;;;;;;;;20.10;71.00;;;;;;5026107;28;19909;-79
2023/06/09 06:40:22;;;;;;;;;;;20.20;72.20;;;;;;5024208;28;20012;-79
2023/06/09 06:42:47;;;;;;;;;;;20.20;71.60;;;;;;5023522;28;20348;-80
2023/06/09 06:45:13;;;;;;;;;;;20.30;70.50;;;;;;5039502;28;19910;-79
2023/06/09 06:47:43;;;;;;;;;;;20.40;69.70;;;;;;5022167;28;19913;-80
2023/06/09 06:50:09;;;;;;;;;;;20.40;70.20;;;;;;5029710;28;19917;-80
2023/06/09 06:52:35;;;;;;;;;;;20.50;69.80;;;;;;5058835;28;19916;-79
2023/06/09 06:55:00;;;;;;;;;;;20.40;69.70;;;;;;5032255;28;19913;-80
2023/06/09 06:57:26;;;;;;;;;;;20.50;71.30;;;;;;5043368;28;20295;-80
2023/06/09 06:59:52;;;;;;;;;;;20.50;70.00;;;;;;5046625;28;19956;-80
2023/06/09 07:02:17;;;;;;;;;;;20.60;70.00;;;;;;5022069;23;19934;-85
2023/06/09 07:04:43;;;;;;;;;;;20.60;69.60;;;;;;4985944;28;20015;-84
2023/06/09 07:07:09;;;;;;;;;;;20.60;69.20;;;;;;4981932;28;20028;-85
2023/06/09 07:09:34;;;;;;;;;;;20.80;68.70;;;;;;5055047;28;19916;-84
2023/06/09 07:12:00;;;;;;;;;;;20.70;69.20;;;;;;4991584;28;20052;-85
2023/06/09 07:14:25;;;;;;;;;;;20.80;69.60;;;;;;5019543;22;19925;-79
2023/06/09 07:16:51;;;;;;;;;;;20.90;69.30;;;;;;5039588;28;20414;-79
2023/06/09 07:19:16;;;;;;;;;;;21.00;69.20;;;;;;5037220;28;19909;-80
2023/06/09 07:21:42;;;;;;;;;;;21.10;67.90;;;;;;5036955;28;19920;-79
2023/06/09 07:24:07;;;;;;;;;;;21.10;68.00;;;;;;5038333;28;19935;-80
2023/06/09 07:26:33;;;;;;;;;;;21.10;67.90;;;;;;5039353;28;20315;-81
2023/06/09 07:28:58;;;;;;;;;;;21.30;67.80;;;;;;5038085;28;19928;-80
2023/06/09 07:31:24;;;;;;;;;;;21.20;67.60;;;;;;5038555;28;19909;-80
2023/06/09 07:33:50;;;;;;;;;;;21.30;68.10;;;;;;5034642;28;19993;-80
2023/06/09 07:36:16;;;;;;;;;;;21.50;66.00;;;;;;5027481;28;19921;-81
2023/06/09 07:38:46;;;;;;;;;;;21.50;65.70;;;;;;5033840;28;19913;-80
2023/06/09 07:41:12;;;;;;;;;;;21.60;64.80;;;;;;5036205;28;19913;-80
2023/06/09 07:43:38;;;;;;;;;;;21.70;65.30;;;;;;5034906;28;19936;-79
2023/06/09 07:46:03;;;;;;;;;;;21.70;65.40;;;;;;5036559;28;19909;-81
2023/06/09 07:48:29;;;;;;;;;;;21.80;65.10;;;;;;5037635;28;20000;-80
2023/06/09 07:50:56;;;;;;;;;;;21.80;63.80;;;;;;5035316;28;20369;-80
2023/06/09 07:53:21;;;;;;;;;;;22.00;64.90;;;;;;5037395;28;19913;-81
2023/06/09 07:55:47;;;;;;;;;;;22.00;64.90;;;;;;5035449;28;19909;-80
2023/06/09 07:58:12;;;;;;;;;;;22.10;65.30;;;;;;5035770;28;19920;-81
2023/06/09 08:00:38;;;;;;;;;;;22.20;64.40;;;;;;5037778;28;19958;-82
2023/06/09 08:03:04;;;;;;;;;;;22.30;63.20;;;;;;5057354;28;19909;-80
2023/06/09 08:05:30;;;;;;;;;;;22.30;62.60;;;;;;5039261;28;19913;-81
2023/06/09 08:07:56;;;;;;;;;;;22.30;62.20;;;;;;5038651;28;19932;-81
2023/06/09 08:10:22;;;;;;;;;;;22.30;62.90;;;;;;5059690;28;19924;-80
2023/06/09 08:12:48;;;;;;;;;;;22.40;62.70;;;;;;5044969;28;19913;-80
2023/06/09 08:15:13;;;;;;;;;;;22.50;62.00;;;;;;5040833;28;19929;-81
2023/06/09 08:17:39;;;;;;;;;;;22.60;62.30;;;;;;5040794;28;20258;-81
2023/06/09 08:20:05;;;;;;;;;;;22.50;62.20;;;;;;5038737;28;19913;-81
2023/06/09 08:22:31;;;;;;;;;;;22.60;62.30;;;;;;5040310;28;20249;-81
2023/06/09 08:24:57;;;;;;;;;;;22.60;62.10;;;;;;5036742;28;19986;-80
2023/06/09 08:27:22;;;;;;;;;;;22.70;62.00;;;;;;5039613;28;19913;-81
2023/06/09 08:29:49;;;;;;;;;;;22.60;61.60;;;;;;5039373;28;19913;-80
2023/06/09 08:32:15;;;;;;;;;;;22.60;62.70;;;;;;5040256;28;19916;-80
2023/06/09 08:34:41;;;;;;;;;;;22.70;62.40;;;;;;5039627;28;19913;-81
2023/06/09 08:37:07;;;;;;;;;;;22.70;63.10;;;;;;5039010;28;20000;-80
2023/06/09 08:39:33;;;;;;;;;;;22.80;61.50;;;;;;5039921;28;19909;-80
2023/06/09 08:42:06;;;;;;;;;;;22.90;62.30;;;;;;5036243;28;19925;-80
2023/06/09 08:44:36;;;;;;;;;;;23.10;61.20;;;;;;5038362;28;19920;-81
2023/06/09 08:47:03;;;;;;;;;;;23.10;61.00;;;;;;5036797;28;19909;-81
2023/06/09 08:49:29;;;;;;;;;;;23.30;60.90;;;;;;5053565;28;20055;-81
2023/06/09 08:51:56;;;;;;;;;;;23.50;60.90;;;;;;5038088;28;19951;-81
2023/06/09 08:54:22;;;;;;;;;;;23.60;59.70;;;;;;5036255;28;20020;-81
2023/06/09 08:56:47;;;;;;;;;;;23.60;60.10;;;;;;5042536;28;19936;-81
2023/06/09 08:59:14;;;;;;;;;;;23.60;59.80;;;;;;5042689;28;19931;-79
2023/06/09 09:01:40;;;;;;;;;;;23.50;60.20;;;;;;5057630;28;19927;-79
2023/06/09 09:04:06;;;;;;;;;;;23.60;60.00;;;;;;5040487;28;20311;-81
2023/06/09 09:06:32;;;;;;;;;;;23.70;58.00;;;;;;5040284;28;19924;-82
2023/06/09 09:08:58;;;;;;;;;;;23.80;58.80;;;;;;5042084;28;19913;-82
2023/06/09 09:11:25;;;;;;;;;;;23.90;58.40;;;;;;5039253;28;19909;-82
2023/06/09 09:13:51;;;;;;;;;;;24.00;57.90;;;;;;5038636;28;19914;-82
2023/06/09 09:16:18;;;;;;;;;;;24.00;57.50;;;;;;5039558;28;20021;-81
2023/06/09 09:18:47;;;;;;;;;;;24.10;58.40;;;;;;5039443;28;19913;-81
2023/06/09 09:21:19;;;;;;;;;;;24.10;57.60;;;;;;5040739;28;19927;-81
2023/06/09 09:23:54;;;;;;;;;;;24.10;57.80;;;;;;5055174;28;20347;-82
2023/06/09 09:26:25;;;;;;;;;;;24.10;57.40;;;;;;5037449;28;19920;-81
2023/06/09 09:28:53;;;;;;;;;;;24.30;58.00;;;;;;5038789;28;19925;-81
2023/06/09 09:31:18;;;;;;;;;;;24.40;56.00;;;;;;5038508;28;19913;-81
2023/06/09 09:33:47;;;;;;;;;;;24.40;56.50;;;;;;5038169;28;20015;-82
2023/06/09 09:36:13;;;;;;;;;;;24.50;55.80;;;;;;5036430;28;19921;-81
2023/06/09 09:38:42;;;;;;;;;;;24.70;56.40;;;;;;5035439;28;19913;-81
2023/06/09 09:41:12;;;;;;;;;;;24.90;54.10;;;;;;5037110;28;19913;-80
2023/06/09 09:43:39;;;;;;;;;;;24.70;54.40;;;;;;5036905;28;19992;-81
2023/06/09 09:46:06;;;;;;;;;;;24.80;54.40;;;;;;5037092;28;19959;-81
2023/06/09 09:48:33;;;;;;;;;;;25.00;54.60;;;;;;5036897;28;19921;-81
2023/06/09 09:50:58;;;;;;;;;;;25.10;54.00;;;;;;5036454;28;19921;-81
2023/06/09 09:53:27;;;;;;;;;;;25.10;53.00;;;;;;5043341;28;19920;-81
2023/06/09 09:55:54;;;;;;;;;;;25.10;54.40;;;;;;5035625;28;19921;-81
2023/06/09 09:58:26;;;;;;;;;;;25.10;53.70;;;;;;5037586;28;20055;-81
2023/06/09 10:00:55;;;;;;;;;;;25.10;53.50;;;;;;5040849;28;20034;-79
2023/06/09 10:03:22;;;;;;;;;;;25.30;53.80;;;;;;5037002;28;20376;-81
2023/06/09 10:05:48;;;;;;;;;;;25.20;52.90;;;;;;5036628;28;19920;-80
2023/06/09 10:08:21;;;;;;;;;;;25.20;54.60;;;;;;5037430;28;19924;-81
2023/06/09 10:10:47;;;;;;;;;;;25.30;53.10;;;;;;5036898;28;19932;-81
2023/06/09 10:13:13;;;;;;;;;;;25.40;53.00;;;;;;5036827;28;20345;-81
2023/06/09 10:15:40;;;;;;;;;;;25.50;52.40;;;;;;5031783;28;19982;-81
2023/06/09 10:18:07;;;;;;;;;;;25.50;52.00;;;;;;5031093;28;19956;-79
2023/06/09 10:20:32;;;;;;;;;;;25.60;51.40;;;;;;5031814;28;20407;-79
2023/06/09 10:22:58;;;;;;;;;;;25.90;50.80;;;;;;5032216;28;19909;-81
2023/06/09 10:25:24;;;;;;;;;;;25.90;50.80;;;;;;5032379;28;19909;-81
2023/06/09 10:27:50;;;;;;;;;;;25.90;49.60;;;;;;5029900;28;20012;-80
2023/06/09 10:30:16;;;;;;;;;;;26.00;49.50;;;;;;5032998;28;19913;-80
2023/06/09 10:32:46;;;;;;;;;;;26.10;50.60;;;;;;5031084;28;20031;-82
2023/06/09 10:35:13;;;;;;;;;;;26.00;51.90;;;;;;5024879;28;19964;-81
2023/06/09 10:37:41;;;;;;;;;;;26.10;50.80;;;;;;5031474;28;19916;-80
2023/06/09 10:40:12;;;;;;;;;;;26.10;49.70;;;;;;5031205;28;19917;-80
2023/06/09 10:42:47;;;;;;;;;;;26.00;49.20;;;;;;5032485;28;20444;-81
2023/06/09 10:45:13;;;;;;;;;;;26.10;50.50;;;;;;5031172;28;19913;-80
2023/06/09 10:47:43;;;;;;;;;;;26.20;50.70;;;;;;5032345;28;19910;-81
2023/06/09 10:50:25;;;;;;;;;;;26.40;47.60;;;;;;5034100;28;19956;-81
2023/06/09 10:52:54;;;;;;;;;;;26.50;48.70;;;;;;5033821;28;19913;-80
2023/06/09 10:55:22;;;;;;;;;;;26.30;47.80;;;;;;5029263;28;19920;-81
2023/06/09 10:57:49;;;;;;;;;;;26.40;48.60;;;;;;5031601;28;19908;-82
2023/06/09 11:00:15;;;;;;;;;;;26.50;47.00;;;;;;5035392;28;19920;-82
2023/06/09 11:02:42;;;;;;;;;;;26.60;46.70;;;;;;5033478;28;19913;-81
2023/06/09 11:05:08;;;;;;;;;;;26.70;46.30;;;;;;5035247;28;20361;-82
2023/06/09 11:07:43;;;;;;;;;;;26.60;48.00;;;;;;5035972;28;19916;-81
2023/06/09 11:10:08;;;;;;;;;;;26.70;46.90;;;;;;5034479;28;19971;-81
2023/06/09 11:12:36;;;;;;;;;;;26.60;46.60;;;;;;5036253;28;19913;-80
2023/06/09 11:15:03;;;;;;;;;;;26.80;48.40;;;;;;5044403;28;19924;-82
2023/06/09 11:17:39;;;;;;;;;;;26.80;48.60;;;;;;5046926;28;19933;-80
2023/06/09 11:20:11;;;;;;;;;;;27.00;48.60;;;;;;5038919;28;19913;-81
2023/06/09 11:22:53;;;;;;;;;;;26.90;47.30;;;;;;5039927;28;19935;-82
2023/06/09 11:25:18;;;;;;;;;;;26.80;49.40;;;;;;5039751;28;19909;-80
2023/06/09 11:28:04;;;;;;;;;;;26.80;49.50;;;;;;5058934;28;19999;-81
2023/06/09 11:30:30;;;;;;;;;;;26.70;48.10;;;;;;5046756;28;19917;-81
2023/06/09 11:32:57;;;;;;;;;;;26.80;47.80;;;;;;5036815;28;19916;-81
2023/06/09 11:35:39;;;;;;;;;;;27.00;46.40;;;;;;5044533;28;19913;-80
2023/06/09 11:38:06;;;;;;;;;;;26.80;47.40;;;;;;5037859;28;19909;-81
2023/06/09 11:40:32;;;;;;;;;;;26.90;48.00;;;;;;5038542;28;20537;-80
2023/06/09 11:42:59;;;;;;;;;;;27.10;47.20;;;;;;5035031;28;20304;-81
2023/06/09 11:45:25;;;;;;;;;;;27.10;47.60;;;;;;5044274;22;19910;-86
2023/06/09 11:47:56;;;;;;;;;;;27.00;47.50;;;;;;5080204;28;19939;-85
2023/06/09 11:50:22;;;;;;;;;;;27.00;49.00;;;;;;5073845;28;19921;-86
2023/06/09 11:53:00;;;;;;;;;;;27.10;48.20;;;;;;5075309;28;19908;-85
2023/06/09 11:55:26;;;;;;;;;;;27.10;48.80;;;;;;5074668;28;19908;-86
2023/06/09 11:57:52;;;;;;;;;;;27.20;48.10;;;;;;5076959;28;19912;-85
2023/06/09 12:00:18;;;;;;;;;;;27.30;48.40;;;;;;5074849;28;19916;-84
2023/06/09 12:02:46;;;;;;;;;;;27.20;46.60;;;;;;5093991;28;20354;-84
2023/06/09 12:05:12;;;;;;;;;;;27.20;46.60;;;;;;5075632;28;20316;-84
2023/06/09 12:07:37;;;;;;;;;;;27.20;48.00;;;;;;5077604;28;19912;-83
2023/06/09 12:10:04;;;;;;;;;;;27.40;47.40;;;;;;5074770;28;20014;-85
2023/06/09 12:12:29;;;;;;;;;;;27.40;46.20;;;;;;5075098;28;20300;-86
2023/06/09 12:14:55;;;;;;;;;;;27.50;46.30;;;;;;5072720;28;20083;-83
2023/06/09 12:17:21;;;;;;;;;;;27.50;45.50;;;;;;5074137;28;19915;-86
2023/06/09 12:19:48;;;;;;;;;;;27.50;45.90;;;;;;5070638;28;19913;-84
2023/06/09 12:22:13;;;;;;;;;;;27.40;46.40;;;;;;5074487;28;19916;-83
2023/06/09 12:24:39;;;;;;;;;;;27.30;46.00;;;;;;5071329;28;20309;-84
2023/06/09 12:27:11;;;;;;;;;;;27.30;45.80;;;;;;5069352;28;19947;-84
2023/06/09 12:29:37;;;;;;;;;;;27.30;46.70;;;;;;5064546;28;20400;-84
2023/06/09 12:32:04;;;;;;;;;;;27.50;46.70;;;;;;5070778;28;19977;-85
2023/06/09 12:34:30;;;;;;;;;;;27.50;45.30;;;;;;5072946;28;19982;-85
2023/06/09 12:36:56;;;;;;;;;;;27.50;45.20;;;;;;5073578;28;19912;-83
2023/06/09 12:39:22;;;;;;;;;;;27.60;45.60;;;;;;5077633;28;19908;-86
2023/06/09 12:41:48;;;;;;;;;;;27.60;45.50;;;;;;5072826;28;19916;-86
2023/06/09 12:44:23;;;;;;;;;;;27.90;42.90;;;;;;5092349;28;19927;-85
2023/06/09 12:46:55;;;;;;;;;;;27.60;43.20;;;;;;5078219;28;20322;-84
2023/06/09 12:49:28;;;;;;;;;;;27.70;44.30;;;;;;5076221;28;19912;-84
2023/06/09 12:51:54;;;;;;;;;;;28.00;43.30;;;;;;5073595;28;19912;-84
2023/06/09 12:54:19;;;;;;;;;;;28.10;43.10;;;;;;5077761;28;19913;-85
2023/06/09 12:56:44;;;;;;;;;;;28.00;44.00;;;;;;5074589;28;20366;-85
2023/06/09 12:59:10;;;;;;;;;;;27.90;45.00;;;;;;5075646;28;19913;-85
2023/06/09 13:01:36;;;;;;;;;;;28.00;43.70;;;;;;5075029;28;19915;-86
2023/06/09 13:04:01;;;;;;;;;;;28.00;43.40;;;;;;5074081;28;19917;-85
2023/06/09 13:06:27;;;;;;;;;;;28.10;43.40;;;;;;5086497;28;20282;-84
2023/06/09 13:08:52;;;;;;;;;;;28.00;43.10;;;;;;5070792;28;20394;-84
2023/06/09 13:11:18;;;;;;;;;;;27.90;42.90;;;;;;5090344;28;19942;-84
2023/06/09 13:13:43;;;;;;;;;;;27.70;43.30;;;;;;5077840;28;19934;-84
2023/06/09 13:16:09;;;;;;;;;;;27.60;44.00;;;;;;5085131;28;19947;-86
2023/06/09 13:18:35;;;;;;;;;;;27.50;42.60;;;;;;5083449;28;19913;-85
2023/06/09 13:21:00;;;;;;;;;;;27.30;44.00;;;;;;5097205;28;19916;-82
2023/06/09 13:23:26;;;;;;;;;;;27.30;43.40;;;;;;5081830;28;19917;-84
2023/06/09 13:25:51;;;;;;;;;;;27.20;43.80;;;;;;5078974;28;19951;-85
2023/06/09 13:28:17;;;;;;;;;;;27.30;43.90;;;;;;5083294;28;20434;-87
2023/06/09 13:30:43;;;;;;;;;;;27.20;44.40;;;;;;5084916;28;20353;-85
2023/06/09 13:33:09;;;;;;;;;;;27.20;43.10;;;;;;5082306;28;19913;-86
2023/06/09 13:35:35;;;;;;;;;;;27.40;42.70;;;;;;5072410;28;19924;-85
2023/06/09 13:38:01;;;;;;;;;;;27.50;42.50;;;;;;5075234;28;19934;-84
2023/06/09 13:40:26;;;;;;;;;;;27.30;42.90;;;;;;5071847;28;20003;-85
2023/06/09 13:42:52;;;;;;;;;;;27.20;42.20;;;;;;5071632;28;19916;-84
2023/06/09 13:45:18;;;;;;;;;;;27.10;42.90;;;;;;5074218;28;19947;-85
2023/06/09 13:47:44;;;;;;;;;;;27.10;43.40;;;;;;5074241;28;19920;-84
2023/06/09 13:50:09;;;;;;;;;;;27.00;43.70;;;;;;5077816;28;19920;-84
2023/06/09 13:52:35;;;;;;;;;;;27.00;43.50;;;;;;5090697;28;19920;-85
2023/06/09 13:55:00;;;;;;;;;;;26.90;43.50;;;;;;5078672;28;19969;-85
2023/06/09 13:57:26;;;;;;;;;;;26.80;43.40;;;;;;5078906;28;19953;-83
2023/06/09 13:59:51;;;;;;;;;;;26.80;43.60;;;;;;5078252;28;19916;-86
2023/06/09 14:02:17;;;;;;;;;;;26.80;43.40;;;;;;5080440;28;19916;-84
2023/06/09 14:04:43;;;;;;;;;;;26.80;43.50;;;;;;5080360;28;19923;-86
2023/06/09 14:07:10;;;;;;;;;;;26.80;44.00;;;;;;5092284;28;19916;-85
2023/06/09 14:09:36;;;;;;;;;;;27.10;44.40;;;;;;5076291;28;20400;-85
2023/06/09 14:12:03;;;;;;;;;;;27.20;43.40;;;;;;5079315;28;22303;-85
2023/06/09 14:14:29;;;;;;;;;;;27.30;43.60;;;;;;5077526;28;19947;-87
2023/06/09 14:16:54;;;;;;;;;;;27.30;43.50;;;;;;5078657;28;19946;-86